createdAt,value
2019-05-05T00:02:20.780Z,5.40
2019-05-05T00:05:08.606Z,9.05
2019-05-05T00:07:36.993Z,6.20
2019-05-05T00:10:09.165Z,3.37
2019-05-05T00:12:55.141Z,3.47
2019-05-05T00:15:31.500Z,5.15
2019-05-05T00:18:00.453Z,4.03
2019-05-05T00:20:29.246Z,7.30
2019-05-05T00:22:58.130Z,7.08
2019-05-05T00:25:26.885Z,5.53
2019-05-05T00:27:55.813Z,3.77
2019-05-05T00:30:26.502Z,4.17
2019-05-05T00:32:55.341Z,6.90
2019-05-05T00:35:25.249Z,9.67
2019-05-05T00:37:54.470Z,4.92
2019-05-05T00:40:24.805Z,7.08
2019-05-05T00:42:55.204Z,4.33
2019-05-05T00:45:25.293Z,4.97
2019-05-05T00:47:58.453Z,7.83
2019-05-05T00:50:27.295Z,3.77
2019-05-05T00:52:57.043Z,4.58
2019-05-05T00:57:54.800Z,4.17
2019-05-05T01:00:31.087Z,4.12
2019-05-05T01:03:01.741Z,6.87
2019-05-05T01:05:49.083Z,5.58
2019-05-05T01:08:20.111Z,4.90
2019-05-05T01:10:49.834Z,5.35
2019-05-05T01:13:18.611Z,6.30
2019-05-05T01:15:47.447Z,3.90
2019-05-05T01:18:16.199Z,5.60
2019-05-05T01:20:45.035Z,7.92
2019-05-05T01:23:15.125Z,7.22
2019-05-05T01:25:45.531Z,3.05
2019-05-05T01:28:16.187Z,4.00
2019-05-05T01:30:46.632Z,5.47
2019-05-05T01:33:34.269Z,5.95
2019-05-05T01:36:04.595Z,5.70
2019-05-05T01:38:34.909Z,8.38
2019-05-05T01:41:11.357Z,5.90
2019-05-05T01:43:40.542Z,8.90
2019-05-05T01:46:09.633Z,5.50
2019-05-05T01:48:38.398Z,5.05
2019-05-05T01:51:07.250Z,5.95
2019-05-05T01:53:36.105Z,3.17
2019-05-05T01:56:05.082Z,7.13
2019-05-05T01:58:34.897Z,7.77
2019-05-05T02:01:04.992Z,5.67
2019-05-05T02:03:35.023Z,6.83
2019-05-05T02:06:05.213Z,3.58
2019-05-05T02:08:34.877Z,5.95
2019-05-05T02:11:05.195Z,6.60
2019-05-05T02:13:34.676Z,10.45
2019-05-05T02:16:05.646Z,6.05
2019-05-05T02:18:34.679Z,4.55
2019-05-05T02:21:05.870Z,6.70
2019-05-05T02:23:35.528Z,7.08
2019-05-05T02:26:05.533Z,9.73
2019-05-05T02:28:35.953Z,5.72
2019-05-05T02:31:25.543Z,4.92
2019-05-05T02:33:56.584Z,4.00
2019-05-05T02:36:25.830Z,2.92
2019-05-05T02:38:56.697Z,5.00
2019-05-05T02:41:25.654Z,4.12
2019-05-05T02:44:15.484Z,4.95
2019-05-05T02:49:19.006Z,6.55
2019-05-05T02:51:48.764Z,7.95
2019-05-05T02:54:18.794Z,8.45
2019-05-05T02:56:49.787Z,7.25
2019-05-05T02:59:23.753Z,11.65
2019-05-05T03:02:05.204Z,7.37
2019-05-05T03:04:35.146Z,7.37
2019-05-05T03:07:05.970Z,9.35
2019-05-05T03:09:35.587Z,7.45
2019-05-05T03:12:04.979Z,11.00
2019-05-05T03:14:36.609Z,11.33
2019-05-05T03:17:10.770Z,8.15
2019-05-05T03:19:40.373Z,11.85
2019-05-05T03:22:09.227Z,8.23
2019-05-05T03:24:38.563Z,7.10
2019-05-05T03:27:08.257Z,12.75
2019-05-05T03:29:37.413Z,9.08
2019-05-05T03:32:11.269Z,9.45
2019-05-05T03:34:37.467Z,8.30
2019-05-05T03:37:06.681Z,6.30
2019-05-05T03:39:37.585Z,8.80
2019-05-05T03:42:20.542Z,11.18
2019-05-05T03:45:07.735Z,10.60
2019-05-05T03:47:37.450Z,9.85
2019-05-05T03:50:07.540Z,11.33
2019-05-05T03:52:38.600Z,7.15
2019-05-05T03:55:07.978Z,7.42
2019-05-05T03:57:36.920Z,13.60
2019-05-05T04:00:09.218Z,8.63
2019-05-05T04:02:45.562Z,9.03
2019-05-05T04:05:18.528Z,8.98
2019-05-05T04:07:47.554Z,8.25
2019-05-05T04:10:16.504Z,7.92
2019-05-05T04:12:47.240Z,8.60
2019-05-05T04:15:16.081Z,8.35
2019-05-05T04:18:03.970Z,8.65
2019-05-05T04:20:34.585Z,10.35
2019-05-05T04:23:03.826Z,6.83
2019-05-05T04:25:34.774Z,11.30
2019-05-05T04:28:04.425Z,9.35
2019-05-05T04:30:33.936Z,9.63
2019-05-05T04:33:03.794Z,10.03
2019-05-05T04:35:34.007Z,8.43
2019-05-05T04:38:04.730Z,7.62
2019-05-05T04:40:34.556Z,8.33
2019-05-05T04:43:03.997Z,12.50
2019-05-05T04:45:34.740Z,7.55
2019-05-05T04:48:07.587Z,8.65
2019-05-05T04:50:49.944Z,7.33
2019-05-05T04:53:20.426Z,9.33
2019-05-05T04:55:49.211Z,8.05
2019-05-05T04:58:17.983Z,7.35
2019-05-05T05:00:46.859Z,6.60
2019-05-05T05:03:34.461Z,8.67
2019-05-05T05:06:14.629Z,6.55
2019-05-05T05:08:44.303Z,7.92
2019-05-05T05:11:14.140Z,9.30
2019-05-05T05:16:13.873Z,9.73
2019-05-05T05:18:44.626Z,6.75
2019-05-05T05:21:14.514Z,11.18
2019-05-05T05:23:44.394Z,13.58
2019-05-05T05:28:44.769Z,5.72
2019-05-05T05:31:15.722Z,7.42
2019-05-05T05:34:04.429Z,7.15
2019-05-05T05:36:45.525Z,6.67
2019-05-05T05:39:15.843Z,10.10
2019-05-05T05:41:45.386Z,5.37
2019-05-05T05:44:19.506Z,6.75
2019-05-05T05:47:00.272Z,6.87
2019-05-05T05:49:32.168Z,8.25
2019-05-05T05:52:12.525Z,6.62
2019-05-05T05:54:33.920Z,8.20
2019-05-05T05:57:04.246Z,8.43
2019-05-05T05:59:34.030Z,8.90
2019-05-05T06:02:11.492Z,6.28
2019-05-05T06:04:34.652Z,5.33
2019-05-05T06:07:04.055Z,6.90
2019-05-05T06:09:34.940Z,5.80
2019-05-05T06:12:03.745Z,5.17
2019-05-05T06:14:34.152Z,4.45
2019-05-05T06:17:04.274Z,7.28
2019-05-05T06:19:33.828Z,6.87
2019-05-05T06:22:03.523Z,7.50
2019-05-05T06:24:34.400Z,8.13
2019-05-05T06:27:03.784Z,5.95
2019-05-05T06:29:34.475Z,4.45
2019-05-05T06:32:04.898Z,6.12
2019-05-05T06:34:33.942Z,5.80
2019-05-05T06:37:04.194Z,4.20
2019-05-05T06:39:33.608Z,7.97
2019-05-05T06:42:04.559Z,4.30
2019-05-05T06:44:35.162Z,6.78
2019-05-05T06:47:05.583Z,5.65
2019-05-05T06:49:34.658Z,5.22
2019-05-05T06:52:05.404Z,7.00
2019-05-05T06:54:34.789Z,8.23
2019-05-05T06:57:04.673Z,6.78
2019-05-05T06:59:35.001Z,10.32
2019-05-05T07:02:04.413Z,6.10
2019-05-05T07:04:33.962Z,10.50
2019-05-05T07:07:04.912Z,8.00
2019-05-05T07:09:33.742Z,7.53
2019-05-05T07:12:04.558Z,10.20
2019-05-05T07:14:34.040Z,6.40
2019-05-05T07:19:30.976Z,6.22
2019-05-05T07:22:03.878Z,6.28
2019-05-05T07:24:30.227Z,7.90
2019-05-05T07:26:59.043Z,7.20
2019-05-05T07:29:27.873Z,6.22
2019-05-05T07:31:58.469Z,4.58
2019-05-05T07:34:28.958Z,7.65
2019-05-05T07:36:57.732Z,6.12
2019-05-05T07:39:28.517Z,3.72
2019-05-05T07:41:57.338Z,5.35
2019-05-05T07:44:29.493Z,7.05
2019-05-05T07:46:56.557Z,6.75
2019-05-05T07:49:25.324Z,7.37
2019-05-05T07:51:54.787Z,9.53
2019-05-05T07:54:23.774Z,5.83
2019-05-05T07:56:53.782Z,5.53
2019-05-05T07:59:23.803Z,6.60
2019-05-05T08:01:54.768Z,5.83
2019-05-05T08:04:24.279Z,4.87
2019-05-05T08:06:53.852Z,5.62
2019-05-05T08:09:24.944Z,8.93
2019-05-05T08:11:54.181Z,4.25
2019-05-05T08:17:10.813Z,4.45
2019-05-05T08:19:44.309Z,6.15
2019-05-05T08:22:14.142Z,10.25
2019-05-05T08:24:56.801Z,6.55
2019-05-05T08:27:34.314Z,9.78
2019-05-05T08:30:05.439Z,7.12
2019-05-05T08:32:35.896Z,6.00
2019-05-05T08:35:08.208Z,6.78
2019-05-05T08:37:37.135Z,6.75
2019-05-05T08:40:07.657Z,6.40
2019-05-05T08:42:36.495Z,5.83
2019-05-05T08:45:06.516Z,6.05
2019-05-05T08:47:35.452Z,6.87
2019-05-05T08:50:06.175Z,6.40
2019-05-05T08:52:35.038Z,5.35
2019-05-05T08:55:04.792Z,6.77
2019-05-05T09:00:04.990Z,7.53
2019-05-05T09:02:36.023Z,5.72
2019-05-05T09:05:06.460Z,4.70
2019-05-05T09:07:36.905Z,7.03
2019-05-05T09:10:06.545Z,6.80
2019-05-05T09:12:36.983Z,7.47
2019-05-05T09:15:09.043Z,7.33
2019-05-05T09:17:37.871Z,8.08
2019-05-05T09:20:07.029Z,5.08
2019-05-05T09:22:36.832Z,6.05
2019-05-05T09:25:13.540Z,6.60
2019-05-05T09:27:47.421Z,9.18
2019-05-05T09:30:18.164Z,7.62
2019-05-05T09:32:47.010Z,6.92
2019-05-05T09:35:15.839Z,5.03
2019-05-05T09:37:44.600Z,6.35
2019-05-05T09:40:13.889Z,7.67
2019-05-05T09:42:44.320Z,6.25
2019-05-05T09:45:14.135Z,8.53
2019-05-05T09:47:44.877Z,8.55
2019-05-05T09:50:14.350Z,5.35
2019-05-05T09:52:49.203Z,5.60
2019-05-05T09:55:18.046Z,6.60
2019-05-05T09:57:46.803Z,9.30
2019-05-05T10:00:16.134Z,8.63
2019-05-05T10:02:44.893Z,4.90
2019-05-05T10:05:14.682Z,12.07
2019-05-05T10:10:13.879Z,12.35
2019-05-05T10:12:44.750Z,10.78
2019-05-05T10:15:14.063Z,8.40
2019-05-05T10:17:43.310Z,8.30
2019-05-05T10:20:14.389Z,8.03
2019-05-05T10:22:43.864Z,6.08
2019-05-05T10:25:34.175Z,8.58
2019-05-05T10:28:04.239Z,6.58
2019-05-05T10:30:33.080Z,5.78
2019-05-05T10:33:03.969Z,6.87
2019-05-05T10:35:34.265Z,6.67
2019-05-05T10:38:02.803Z,4.80
2019-05-05T10:40:37.028Z,5.08
2019-05-05T10:43:06.743Z,7.10
2019-05-05T10:45:35.576Z,9.53
2019-05-05T10:48:05.623Z,6.33
2019-05-05T10:50:34.637Z,4.78
2019-05-05T10:53:04.538Z,8.10
2019-05-05T10:55:34.675Z,3.67
2019-05-05T10:58:04.072Z,3.17
2019-05-05T11:00:44.608Z,2.83
2019-05-05T11:03:14.871Z,2.52
2019-05-05T11:05:45.004Z,2.20
2019-05-05T11:10:44.925Z,3.35
2019-05-05T11:13:13.285Z,3.22
2019-05-05T11:15:44.555Z,4.08
2019-05-05T11:18:14.881Z,1.90
2019-05-05T11:20:44.864Z,2.98
2019-05-05T11:25:44.256Z,1.05
2019-05-05T11:28:13.513Z,1.87
2019-05-05T11:30:45.433Z,2.03
2019-05-05T11:33:34.271Z,2.83
2019-05-05T11:36:16.215Z,3.98
2019-05-05T11:38:45.042Z,2.05
2019-05-05T11:41:15.705Z,2.62
2019-05-05T11:43:45.871Z,3.17
2019-05-05T11:46:15.150Z,2.25
2019-05-05T11:48:44.110Z,2.10
2019-05-05T11:51:14.874Z,1.57
2019-05-05T11:53:44.645Z,2.12
2019-05-05T11:56:14.464Z,4.28
2019-05-05T11:58:44.233Z,2.22
2019-05-05T12:03:44.408Z,2.92
2019-05-05T12:06:14.757Z,3.50
2019-05-05T12:08:51.368Z,2.75
2019-05-05T12:11:20.191Z,2.42
2019-05-05T12:13:48.891Z,1.65
2019-05-05T12:16:19.290Z,2.70
2019-05-05T12:18:48.041Z,2.05
2019-05-05T12:21:16.882Z,1.77
2019-05-05T12:23:45.709Z,2.15
2019-05-05T12:26:31.198Z,3.33
2019-05-05T12:29:02.102Z,2.77
2019-05-05T12:31:33.954Z,2.60
2019-05-05T12:34:03.928Z,1.75
2019-05-05T12:36:34.206Z,2.47
2019-05-05T12:39:06.774Z,4.67
2019-05-05T12:41:35.300Z,2.20
2019-05-05T12:44:05.526Z,2.98
2019-05-05T12:46:38.885Z,1.32
2019-05-05T12:49:09.397Z,2.27
2019-05-05T12:51:38.186Z,1.20
2019-05-05T12:54:07.900Z,1.77
2019-05-05T12:56:37.799Z,4.35
2019-05-05T13:01:37.715Z,2.95
2019-05-05T13:04:06.528Z,4.55
2019-05-05T13:06:35.453Z,6.33
2019-05-05T13:09:06.460Z,3.53
2019-05-05T13:11:36.109Z,4.17
2019-05-05T13:14:05.348Z,5.80
2019-05-05T13:16:34.287Z,6.45
2019-05-05T13:19:04.769Z,5.73
2019-05-05T13:21:36.713Z,7.85
2019-05-05T13:24:07.211Z,8.73
2019-05-05T13:26:43.160Z,6.03
2019-05-05T13:29:13.802Z,4.75
2019-05-05T13:31:44.202Z,4.12
2019-05-05T13:34:13.682Z,2.90
2019-05-05T13:36:44.116Z,3.33
2019-05-05T13:39:14.427Z,3.52
2019-05-05T13:41:44.837Z,2.27
2019-05-05T13:44:17.107Z,2.75
2019-05-05T13:46:46.038Z,4.72
2019-05-05T13:49:24.056Z,3.60
2019-05-05T13:51:54.050Z,5.60
2019-05-05T13:54:24.223Z,1.65
2019-05-05T13:56:53.397Z,2.95
2019-05-05T13:59:27.938Z,2.70
2019-05-05T14:01:56.695Z,2.15
2019-05-05T14:04:25.461Z,4.97
2019-05-05T14:06:55.914Z,3.55
2019-05-05T14:09:24.635Z,2.30
2019-05-05T14:11:53.631Z,1.70
2019-05-05T14:14:24.235Z,3.00
2019-05-05T14:16:53.770Z,2.80
2019-05-05T14:19:24.820Z,2.35
2019-05-05T14:21:53.834Z,4.03
2019-05-05T14:24:24.422Z,3.05
2019-05-05T14:26:54.214Z,3.75
2019-05-05T14:29:36.712Z,7.92
2019-05-05T14:32:06.908Z,5.30
2019-05-05T14:34:37.361Z,2.87
2019-05-05T14:37:24.810Z,5.22
2019-05-05T14:39:54.516Z,4.72
2019-05-05T14:44:54.372Z,3.42
2019-05-05T14:47:24.491Z,4.12
2019-05-05T14:49:54.176Z,2.87
2019-05-05T14:52:24.527Z,4.45
2019-05-05T14:54:54.403Z,2.10
2019-05-05T14:57:25.145Z,2.75
2019-05-05T14:59:55.721Z,3.00
2019-05-05T15:02:24.689Z,4.12
2019-05-05T15:04:55.091Z,3.90
2019-05-05T15:07:31.509Z,2.77
2019-05-05T15:10:04.155Z,1.75
2019-05-05T15:12:35.639Z,1.65
2019-05-05T15:15:07.340Z,1.92
2019-05-05T15:17:38.064Z,3.17
2019-05-05T15:20:08.002Z,4.85
2019-05-05T15:22:36.749Z,1.90
2019-05-05T15:25:06.703Z,3.35
2019-05-05T15:27:35.635Z,2.25
2019-05-05T15:30:07.225Z,1.47
2019-05-05T15:32:36.073Z,2.55
2019-05-05T15:35:06.442Z,2.77
2019-05-05T15:37:35.292Z,2.45
2019-05-05T15:40:05.115Z,2.02
2019-05-05T15:45:03.996Z,1.82
2019-05-05T15:47:34.323Z,2.47
2019-05-05T15:50:05.286Z,2.10
2019-05-05T15:52:35.178Z,2.17
2019-05-05T15:55:06.408Z,3.27
2019-05-05T15:57:35.317Z,2.87
2019-05-05T16:00:05.862Z,3.93
2019-05-05T16:02:36.632Z,2.00
2019-05-05T16:05:08.952Z,2.20
2019-05-05T16:07:37.741Z,3.37
2019-05-05T16:10:07.570Z,2.30
2019-05-05T16:15:28.299Z,1.92
2019-05-05T16:18:01.550Z,3.27
2019-05-05T16:20:33.275Z,3.30
2019-05-05T16:23:04.061Z,4.67
2019-05-05T16:25:33.893Z,3.52
2019-05-05T16:30:34.747Z,1.90
2019-05-05T16:33:04.239Z,2.45
2019-05-05T16:35:34.260Z,2.20
2019-05-05T16:38:06.369Z,4.05
2019-05-05T16:40:33.914Z,2.75
2019-05-05T16:43:04.592Z,2.60
2019-05-05T16:45:34.017Z,2.20
2019-05-05T16:48:03.916Z,2.25
2019-05-05T16:53:06.605Z,2.90
2019-05-05T16:55:37.137Z,2.70
2019-05-05T16:58:06.774Z,2.12
2019-05-05T17:03:04.654Z,2.00
2019-05-05T17:05:35.173Z,4.47
2019-05-05T17:08:04.513Z,2.27
2019-05-05T17:10:34.291Z,4.15
2019-05-05T17:13:04.896Z,6.08
2019-05-05T17:15:36.539Z,3.42
2019-05-05T17:18:33.005Z,2.83
2019-05-05T17:21:04.217Z,3.12
2019-05-05T17:23:34.167Z,3.60
2019-05-05T17:26:04.985Z,2.60
2019-05-05T17:28:33.723Z,2.47
2019-05-05T17:31:02.551Z,2.50
2019-05-05T17:33:31.349Z,2.42
2019-05-05T17:36:00.986Z,1.95
2019-05-05T17:38:31.580Z,2.27
2019-05-05T17:41:16.968Z,1.67
2019-05-05T17:43:47.416Z,2.92
2019-05-05T17:46:21.939Z,2.72
2019-05-05T17:48:53.857Z,2.40
2019-05-05T17:51:31.221Z,2.62
2019-05-05T17:54:03.545Z,2.20
2019-05-05T17:56:33.598Z,3.05
2019-05-05T17:59:03.604Z,2.45
2019-05-05T18:01:33.629Z,2.00
2019-05-05T18:04:04.133Z,2.20
2019-05-05T18:06:34.765Z,2.85
2019-05-05T18:09:17.098Z,5.62
2019-05-05T18:11:53.607Z,3.70
2019-05-05T18:14:24.166Z,2.20
2019-05-05T18:16:54.213Z,2.47
2019-05-05T18:19:25.095Z,4.03
2019-05-05T18:21:54.802Z,2.85
2019-05-05T18:26:53.815Z,4.10
2019-05-05T18:29:24.272Z,4.60
2019-05-05T18:31:53.576Z,5.03
2019-05-05T18:34:23.542Z,7.10
2019-05-05T18:36:54.471Z,4.60
2019-05-05T18:39:24.710Z,4.97
2019-05-05T18:41:58.138Z,4.75
2019-05-05T18:44:34.707Z,5.47
2019-05-05T18:47:14.889Z,5.58
2019-05-05T18:49:42.939Z,5.40
2019-05-05T18:54:39.763Z,5.97
2019-05-05T18:57:09.400Z,5.37
2019-05-05T18:59:38.485Z,4.70
2019-05-05T19:02:14.277Z,5.15
2019-05-05T19:04:58.251Z,6.75
2019-05-05T19:07:54.869Z,7.40
2019-05-05T19:10:15.950Z,8.08
2019-05-05T19:12:45.771Z,6.80
2019-05-05T19:17:42.580Z,8.35
2019-05-05T19:20:14.664Z,7.23
2019-05-05T19:22:45.092Z,7.55
2019-05-05T19:25:16.727Z,6.80
2019-05-05T19:27:48.595Z,11.85
2019-05-05T19:30:18.235Z,10.10
2019-05-05T19:32:47.114Z,13.78
2019-05-05T19:35:15.835Z,10.03
2019-05-05T19:37:44.690Z,7.90
2019-05-05T19:40:15.890Z,16.97
2019-05-05T19:42:46.332Z,9.95
2019-05-05T19:45:15.449Z,10.80
2019-05-05T19:47:44.208Z,8.40
2019-05-05T19:50:21.633Z,6.00
2019-05-05T19:52:50.619Z,8.80
2019-05-05T19:55:21.328Z,6.30
2019-05-05T19:57:50.565Z,9.85
2019-05-05T20:00:20.649Z,10.75
2019-05-05T20:03:01.433Z,9.53
2019-05-05T20:05:21.697Z,9.00
2019-05-05T20:07:52.360Z,10.82
2019-05-05T20:10:21.247Z,10.58
2019-05-05T20:12:50.141Z,12.07
2019-05-05T20:15:23.478Z,11.70
2019-05-05T20:17:53.905Z,9.13
2019-05-05T20:20:23.983Z,11.15
2019-05-05T20:22:54.675Z,12.75
2019-05-05T20:25:24.383Z,10.68
2019-05-05T20:27:55.732Z,12.35
2019-05-05T20:30:24.702Z,9.50
2019-05-05T20:35:35.789Z,11.28
2019-05-05T20:38:21.231Z,13.10
2019-05-05T20:41:08.445Z,10.50
2019-05-05T20:43:37.309Z,9.85
2019-05-05T20:46:07.272Z,10.60
2019-05-05T20:48:36.122Z,16.23
2019-05-05T20:51:07.131Z,11.10
2019-05-05T20:53:35.950Z,12.07
2019-05-05T20:56:04.964Z,11.60
2019-05-05T20:58:33.810Z,12.63
2019-05-05T21:01:04.614Z,15.17
2019-05-05T21:03:34.744Z,13.30
2019-05-05T21:06:04.354Z,10.90
2019-05-05T21:11:04.405Z,12.93
2019-05-05T21:13:34.090Z,9.33
2019-05-05T21:16:03.182Z,10.82
2019-05-05T21:18:31.942Z,9.38
2019-05-05T21:21:04.375Z,13.88
2019-05-05T21:23:35.921Z,13.20
2019-05-05T21:26:10.559Z,12.47
2019-05-05T21:28:42.040Z,13.78
2019-05-05T21:31:10.905Z,14.43
2019-05-05T21:33:40.988Z,14.27
2019-05-05T21:36:12.522Z,15.53
2019-05-05T21:38:43.941Z,13.93
2019-05-05T21:41:13.844Z,16.67
2019-05-05T21:43:44.673Z,15.55
2019-05-05T21:46:15.028Z,17.45
2019-05-05T21:48:44.865Z,20.10
2019-05-05T21:51:24.194Z,15.98
2019-05-05T21:53:54.700Z,16.15
2019-05-05T21:56:42.907Z,17.60
2019-05-05T21:59:14.121Z,19.32
2019-05-05T22:01:48.444Z,15.38
2019-05-05T22:04:14.643Z,19.25
2019-05-05T22:06:43.075Z,18.42
2019-05-05T22:09:11.760Z,18.02
2019-05-05T22:11:40.656Z,15.10
2019-05-05T22:14:09.410Z,19.53
2019-05-05T22:16:38.234Z,17.57
2019-05-05T22:19:08.075Z,19.52
2019-05-05T22:24:15.748Z,19.25
2019-05-05T22:26:44.774Z,25.08
2019-05-05T22:29:16.809Z,20.57
2019-05-05T22:31:46.258Z,19.73
2019-05-05T22:34:14.815Z,22.62
2019-05-05T22:36:45.648Z,27.95
2019-05-05T22:39:16.848Z,30.27
2019-05-05T22:41:44.951Z,33.02
2019-05-05T22:44:14.032Z,36.70
2019-05-05T22:46:43.249Z,28.27
2019-05-05T22:49:12.166Z,29.33
2019-05-05T22:51:40.966Z,26.20
2019-05-05T22:54:09.723Z,28.67
2019-05-05T22:56:39.685Z,31.70
2019-05-05T22:59:08.556Z,31.05
2019-05-05T23:01:37.405Z,30.47
2019-05-05T23:04:19.700Z,27.17
2019-05-05T23:06:59.365Z,24.50
2019-05-05T23:09:28.189Z,24.70
2019-05-05T23:11:57.931Z,27.15
2019-05-05T23:14:29.680Z,26.90
2019-05-05T23:17:11.502Z,22.73
2019-05-05T23:19:45.073Z,23.00
2019-05-05T23:22:15.912Z,28.50
2019-05-05T23:25:04.117Z,27.60
2019-05-05T23:27:49.145Z,28.60
2019-05-05T23:30:23.785Z,25.15
2019-05-05T23:32:54.625Z,26.60
2019-05-05T23:35:23.930Z,28.65
2019-05-05T23:37:55.060Z,26.75
2019-05-05T23:40:26.194Z,29.27
2019-05-05T23:42:55.223Z,29.25
2019-05-05T23:45:25.041Z,29.07
2019-05-05T23:47:55.731Z,32.60
2019-05-05T23:50:24.846Z,27.00
2019-05-05T23:52:55.499Z,28.77
2019-05-05T23:55:24.388Z,26.62
2019-05-05T23:57:54.790Z,29.90
